Time;durP1;ratioP1;P1;durP2;ratioP2;P2;SDS_P1;SDS_P2;PMS_P1;PMS_P2;Temp;Humidity;BMP_temperature;BMP_pressure;BME280_temperature;BME280_humidity;BME280_pressure;Samples;Min_cycle;Max_cycle;Signal;HPM_P1;HPM_P2
2021/03/02 00:01:11;;;;;;;14.35;6.68;;;;;;;-2.13;89.14;94515.03;4902440;29;20055;-92
2021/03/02 00:03:38;;;;;;;9.23;5.18;;;;;;;-2.11;88.62;94517.44;4901877;29;20131;-93
2021/03/02 00:06:06;;;;;;;14.60;7.03;;;;;;;-2.32;88.42;94488.53;4902136;29;20048;-92
2021/03/02 00:08:33;;;;;;;9.98;6.13;;;;;;;-1.64;88.12;94581.56;4902019;29;20438;-92
2021/03/02 00:11:00;;;;;;;12.45;6.07;;;;;;;-1.70;87.24;94574.41;4903622;29;20079;-93
2021/03/02 00:13:27;;;;;;;17.50;6.57;;;;;;;-1.80;87.79;94571.66;4902657;29;20079;-93
2021/03/02 00:15:54;;;;;;;12.45;7.10;;;;;;;-2.32;87.88;94496.06;4901740;29;20496;-92
2021/03/02 00:18:27;;;;;;;10.65;7.03;;;;;;;-1.86;89.03;94566.22;4901715;29;20381;-93
2021/03/02 00:20:58;;;;;;;12.68;9.32;;;;;;;-2.41;88.85;94491.63;4884388;29;20053;-93
2021/03/02 00:23:26;;;;;;;9.68;6.15;;;;;;;-2.77;88.53;94446.09;4911455;29;20488;-92
2021/03/02 00:25:55;;;;;;;14.82;7.90;;;;;;;-2.52;88.82;94487.28;4921700;29;20076;-94
2021/03/02 00:28:23;;;;;;;11.13;4.78;;;;;;;-1.94;89.20;94559.97;4922508;29;20056;-93
2021/03/02 00:30:50;;;;;;;20.48;7.13;;;;;;;-1.90;89.30;94556.34;4922971;29;20052;-93
2021/03/02 00:33:17;;;;;;;12.32;6.97;;;;;;;-2.30;89.21;94508.56;4922197;29;20048;-94
2021/03/02 00:35:44;;;;;;;10.45;5.45;;;;;;;-2.17;89.52;94524.50;4915371;29;20052;-93
2021/03/02 00:38:11;;;;;;;8.85;5.95;;;;;;;-2.18;89.71;94530.44;4923362;29;20044;-93
2021/03/02 00:40:37;;;;;;;11.07;5.90;;;;;;;-1.94;89.93;94564.22;4923713;29;20044;-93
2021/03/02 00:43:03;;;;;;;;;;;;;;;-1.93;89.63;94563.28;4924164;29;20440;-93
2021/03/02 00:45:30;;;;;;;8.30;5.07;;;;;;;-2.09;89.19;94549.16;4923555;29;20381;-93
2021/03/02 00:47:57;;;;;;;17.50;7.05;;;;;;;-2.52;89.64;94484.78;4923445;29;20496;-94
2021/03/02 00:50:24;;;;;;;11.10;5.07;;;;;;;-2.31;89.66;94522.84;4923095;29;20491;-94
2021/03/02 00:52:52;;;;;;;9.55;5.90;;;;;;;-2.02;89.76;94557.16;4922524;29;20134;-94
2021/03/02 00:55:19;;;;;;;16.77;6.45;;;;;;;-2.04;89.50;94553.94;4919420;29;20048;-94
2021/03/02 00:57:45;;;;;;;14.80;4.72;;;;;;;-2.61;89.52;94485.34;4903242;29;20060;-93
2021/03/02 01:00:13;;;;;;;11.55;6.35;;;;;;;-2.05;89.28;94560.66;4904493;29;20440;-93
2021/03/02 01:02:39;;;;;;;8.13;4.63;;;;;;;-2.17;90.31;94548.88;4903769;29;20507;-93
2021/03/02 01:05:07;;;;;;;12.70;7.20;;;;;;;-2.36;89.98;94522.34;4904105;29;20048;-92
2021/03/02 01:07:34;;;;;;;15.02;7.00;;;;;;;-2.64;88.88;94472.97;4905342;29;20056;-94
2021/03/02 01:10:02;;;;;;;11.75;4.93;;;;;;;-2.49;88.03;94508.94;4905256;29;20056;-94
2021/03/02 01:12:28;;;;;;;7.50;5.05;;;;;;;-2.83;87.41;94466.59;4904534;29;20492;-94
2021/03/02 01:14:55;;;;;;;6.75;4.32;;;;;;;-2.49;87.27;94524.84;4904284;29;20060;-95
2021/03/02 01:17:22;;;;;;;10.32;4.13;;;;;;;-2.42;87.20;94545.38;4917303;29;20104;-94
2021/03/02 01:19:48;;;;;;;8.20;4.65;;;;;;;-2.50;87.96;94532.50;4923361;29;20048;-93
2021/03/02 01:22:15;;;;;;;5.60;3.92;;;;;;;-2.83;87.91;94495.06;4923738;29;20061;-93
2021/03/02 01:24:41;;;;;;;6.03;3.22;;;;;;;-3.23;87.48;94440.50;4923729;29;20048;-93
2021/03/02 01:27:09;;;;;;;4.78;2.75;;;;;;;-3.01;87.75;94478.63;4922885;29;20063;-94
2021/03/02 01:29:35;;;;;;;8.13;4.38;;;;;;;-2.66;88.41;94535.16;4922651;29;20052;-94
2021/03/02 01:32:01;;;;;;;;;;;;;;;-2.49;88.51;94561.78;4922928;29;20048;-93
2021/03/02 01:34:28;;;;;;;6.75;2.53;;;;;;;-2.55;89.36;94560.44;4920653;29;19923;-93
2021/03/02 01:36:54;;;;;;;5.28;3.42;;;;;;;-3.08;89.49;94475.66;4910132;29;20048;-94
2021/03/02 01:39:21;;;;;;;10.52;3.47;;;;;;;-2.99;89.38;94494.41;4903062;29;20076;-93
2021/03/02 01:41:49;;;;;;;9.65;4.43;;;;;;;-2.74;89.12;94521.34;4903577;29;20104;-93
2021/03/02 01:44:16;;;;;;;10.15;4.47;;;;;;;-2.80;88.98;94514.19;4909009;29;20057;-93
2021/03/02 01:46:47;;;;;;;4.53;3.53;;;;;;;-2.99;89.62;94492.72;4904707;29;20515;-93
2021/03/02 01:49:13;;;;;;;7.75;4.55;;;;;;;-2.78;89.50;94514.09;4903267;29;20568;-91
2021/03/02 01:51:39;;;;;;;;;;;;;;;-2.57;90.05;94540.44;4902566;29;20063;-92
2021/03/02 01:54:06;;;;;;;3.33;3.03;;;;;;;-2.60;90.36;94547.38;4902379;29;19923;-92
2021/03/02 01:56:32;;;;;;;10.05;4.55;;;;;;;-2.72;90.59;94513.72;4902253;29;20052;-93
2021/03/02 01:58:59;;;;;;;11.60;4.35;;;;;;;-2.86;90.36;94499.47;4903824;29;20063;-95
2021/03/02 02:01:27;;;;;;;10.75;6.72;;;;;;;-2.51;90.05;94541.72;4904174;29;20044;-94
2021/03/02 02:03:58;;;;;;;14.65;7.22;;;;;;;-2.99;89.95;94485.16;4914228;29;20052;-94
2021/03/02 02:06:33;;;;;;;11.45;5.82;;;;;;;-3.13;90.63;94465.09;4921981;29;20052;-94
2021/03/02 02:09:06;;;;;;;11.77;7.15;;;;;;;-2.88;91.26;94514.66;4904330;29;20153;-92
2021/03/02 02:11:42;;;;;;;16.75;6.97;;;;;;;-2.91;91.39;94509.84;4903346;29;20141;-93
2021/03/02 02:14:17;;;;;;;18.40;8.18;;;;;;;-3.20;92.06;94489.78;4904212;29;20503;-94
2021/03/02 02:16:49;;;;;;;14.50;8.57;;;;;;;-3.10;92.84;94548.66;4903916;29;20041;-93
2021/03/02 02:19:39;;;;;;;15.55;7.70;;;;;;;-3.41;94.09;94499.44;4904308;29;20076;-93
2021/03/02 02:22:13;;;;;;;16.35;8.27;;;;;;;-3.40;93.87;94491.81;4904005;29;20100;-92
2021/03/02 02:24:58;;;;;;;16.23;7.25;;;;;;;-3.44;93.19;94469.47;4903107;29;20511;-92
2021/03/02 02:27:29;;;;;;;8.85;5.00;;;;;;;-3.29;93.15;94482.81;4903690;29;20052;-94
2021/03/02 02:29:56;;;;;;;14.18;7.75;;;;;;;-3.19;92.38;94491.41;4904366;29;20059;-93
2021/03/02 02:32:23;;;;;;;11.25;7.90;;;;;;;-3.40;91.96;94451.59;4903897;29;20117;-93
2021/03/02 02:34:52;;;;;;;9.75;7.72;;;;;;;-3.11;91.84;94494.25;4904570;29;20052;-93
2021/03/02 02:37:20;;;;;;;15.63;6.35;;;;;;;-3.13;90.96;94500.28;4904484;29;20056;-93
2021/03/02 02:39:48;;;;;;;12.13;6.40;;;;;;;-2.85;90.14;94544.66;4902912;29;20048;-92
2021/03/02 02:42:16;;;;;;;14.25;5.80;;;;;;;-2.85;90.54;94541.31;4901990;29;20060;-93
2021/03/02 02:44:44;;;;;;;6.47;3.88;;;;;;;-3.14;90.21;94519.56;4902839;29;20112;-94
2021/03/02 02:47:10;;;;;;;16.02;6.32;;;;;;;-3.11;90.19;94511.03;4903165;29;20072;-93
2021/03/02 02:49:37;;;;;;;10.27;6.13;;;;;;;-3.22;90.77;94502.47;4902344;29;20056;-92
2021/03/02 02:52:04;;;;;;;10.05;5.82;;;;;;;-3.20;90.45;94509.09;4902398;29;20049;-93
2021/03/02 02:54:31;;;;;;;9.38;6.10;;;;;;;-3.17;90.56;94512.22;4904685;29;20041;-94
2021/03/02 02:56:58;;;;;;;6.82;5.10;;;;;;;-3.32;90.54;94498.06;4903704;29;20408;-93
2021/03/02 02:59:29;;;;;;;6.32;4.75;;;;;;;-3.05;91.19;94557.63;4902472;29;20522;-93
2021/03/02 03:01:59;;;;;;;8.95;5.25;;;;;;;-3.25;91.17;94527.75;4901769;29;20057;-92
2021/03/02 03:04:31;;;;;;;13.10;6.85;;;;;;;-3.04;91.35;94557.53;4902134;29;20100;-92
2021/03/02 03:07:00;;;;;;;9.13;5.25;;;;;;;-3.04;91.42;94556.72;4902559;29;20053;-94
2021/03/02 03:09:27;;;;;;;8.85;5.50;;;;;;;-3.50;91.74;94500.78;4903231;29;20104;-92
2021/03/02 03:11:59;;;;;;;8.10;5.75;;;;;;;-3.48;91.70;94504.00;4905602;29;20049;-92
2021/03/02 03:14:28;;;;;;;11.13;4.57;;;;;;;-3.39;91.69;94510.19;4905149;29;20067;-92
2021/03/02 03:16:58;;;;;;;9.57;4.40;;;;;;;-3.55;90.70;94498.56;4904272;29;20052;-92
2021/03/02 03:19:26;;;;;;;11.77;6.60;;;;;;;-3.99;90.64;94449.25;4904745;29;20072;-92
2021/03/02 03:21:53;;;;;;;8.82;3.72;;;;;;;-3.69;91.04;94506.91;4904674;29;20048;-93
2021/03/02 03:24:22;;;;;;;6.00;4.07;;;;;;;-4.02;90.77;94455.28;4904882;29;20792;-95
2021/03/02 03:26:51;;;;;;;6.07;5.30;;;;;;;-3.38;90.58;94547.00;4903593;29;20044;-93
2021/03/02 03:29:20;;;;;;;16.58;4.30;;;;;;;-3.63;89.51;94516.59;4903476;29;20049;-92
2021/03/02 03:31:46;;;;;;;5.05;3.58;;;;;;;-3.73;89.20;94513.00;4903480;29;20057;-92
2021/03/02 03:34:15;;;;;;;5.60;4.03;;;;;;;-3.74;89.25;94523.13;4907003;29;20052;-94
2021/03/02 03:36:43;;;;;;;6.18;3.80;;;;;;;-3.68;89.10;94537.84;4905354;29;20052;-91
2021/03/02 03:39:09;;;;;;;7.78;4.32;;;;;;;-3.85;88.88;94521.25;4904054;29;20415;-94
2021/03/02 03:41:36;;;;;;;7.90;4.25;;;;;;;-3.86;89.33;94530.47;4904137;29;20053;-93
2021/03/02 03:44:03;;;;;;;7.55;4.28;;;;;;;-3.85;89.55;94537.09;4905765;29;20067;-93
2021/03/02 03:46:30;;;;;;;9.13;3.50;;;;;;;-3.52;89.44;94572.94;4906723;29;20052;-93
2021/03/02 03:48:56;;;;;;;;;;;;;;;-3.53;90.39;94579.66;4906203;29;20045;-93
2021/03/02 03:51:27;;;;;;;6.80;3.13;;;;;;;-3.76;89.73;94553.34;4905006;29;19923;-93
2021/03/02 03:53:54;;;;;;;5.57;4.10;;;;;;;-3.75;89.69;94555.00;4907234;29;20061;-95
2021/03/02 03:56:22;;;;;;;6.15;2.83;;;;;;;-3.72;89.63;94547.25;4905954;29;20061;-91
2021/03/02 03:58:50;;;;;;;7.63;5.43;;;;;;;-3.81;89.88;94546.09;4906231;29;20100;-92
2021/03/02 04:01:16;;;;;;;12.50;6.13;;;;;;;-3.97;89.70;94531.13;4906092;29;20044;-94
2021/03/02 04:03:44;;;;;;;9.73;6.85;;;;;;;-3.80;90.11;94562.75;4904197;29;20049;-92
2021/03/02 04:06:10;;;;;;;8.68;4.57;;;;;;;-3.62;90.12;94595.25;4904596;29;20049;-95
2021/03/02 04:08:38;;;;;;;12.85;4.85;;;;;;;-3.86;90.33;94572.34;4904439;29;20060;-91
2021/03/02 04:11:05;;;;;;;10.57;5.65;;;;;;;-3.98;90.91;94542.03;4902745;29;20060;-92
2021/03/02 04:13:31;;;;;;;15.68;5.70;;;;;;;-4.18;90.63;94518.06;4903936;29;20120;-93
2021/03/02 04:15:59;;;;;;;20.50;4.93;;;;;;;-3.69;91.38;94594.81;4904294;29;20412;-92
2021/03/02 04:18:25;;;;;;;10.45;5.57;;;;;;;-3.73;91.99;94605.09;4904002;29;20073;-92
2021/03/02 04:20:53;;;;;;;12.75;7.00;;;;;;;-4.08;92.74;94549.28;4904295;29;20060;-92
2021/03/02 04:23:20;;;;;;;11.48;6.05;;;;;;;-3.81;92.86;94576.22;4903088;29;20060;-93
2021/03/02 04:25:47;;;;;;;14.95;6.88;;;;;;;-3.76;92.73;94579.28;4904427;29;20059;-94
2021/03/02 04:28:32;;;;;;;7.88;5.35;;;;;;;-4.05;92.35;94539.06;4905185;29;20484;-93
2021/03/02 04:30:58;;;;;;;9.88;3.38;;;;;;;-3.74;90.90;94586.72;4903923;29;20108;-93
2021/03/02 04:33:24;;;;;;;8.38;6.10;;;;;;;-3.71;90.67;94603.31;4904796;29;20049;-92
2021/03/02 04:35:51;;;;;;;8.25;2.65;;;;;;;-3.99;90.47;94559.69;4905445;29;20056;-94
2021/03/02 04:38:17;;;;;;;4.72;3.28;;;;;;;-3.97;91.10;94560.41;4904792;29;20400;-93
2021/03/02 04:40:43;;;;;;;14.35;4.35;;;;;;;-4.07;91.12;94540.84;4905367;29;20060;-93
2021/03/02 04:43:11;;;;;;;9.40;5.40;;;;;;;-4.24;90.41;94515.91;4905153;29;20049;-94
2021/03/02 04:45:37;;;;;;;6.30;4.22;;;;;;;-4.28;90.25;94527.81;4907371;29;20057;-94
2021/03/02 04:48:05;;;;;;;9.77;5.78;;;;;;;-4.11;90.49;94566.22;4908250;29;20052;-94
2021/03/02 04:50:31;;;;;;;10.90;7.57;;;;;;;-4.50;94.17;94564.13;4906763;29;20067;-93
2021/03/02 04:52:58;;;;;;;8.85;7.28;;;;;;;-4.24;96.41;94598.69;4905209;29;20056;-93
2021/03/02 04:55:24;;;;;;;5.75;3.85;;;;;;;-4.62;96.83;94533.03;4907697;29;20044;-94
2021/03/02 04:57:51;;;;;;;9.60;4.82;;;;;;;-4.26;96.66;94570.41;4907202;29;20079;-95
2021/03/02 05:00:19;;;;;;;16.73;6.13;;;;;;;-4.54;96.12;94526.78;4903883;29;20049;-94
2021/03/02 05:02:46;;;;;;;7.28;4.85;;;;;;;-4.46;94.97;94520.44;4904462;29;20061;-94
2021/03/02 05:05:14;;;;;;;14.85;6.88;;;;;;;-4.21;93.48;94566.72;4905214;29;20112;-93
2021/03/02 05:07:41;;;;;;;12.38;7.18;;;;;;;-4.34;92.36;94536.50;4907806;29;20131;-94
2021/03/02 05:10:16;;;;;;;11.25;7.07;;;;;;;-3.88;91.94;94612.63;4905288;29;20052;-94
2021/03/02 05:12:42;;;;;;;9.87;6.27;;;;;;;-4.44;92.06;94540.41;4905913;29;20511;-93
2021/03/02 05:15:09;;;;;;;12.73;5.72;;;;;;;-4.07;92.35;94581.00;4922259;29;20056;-94
2021/03/02 05:17:37;;;;;;;12.65;6.15;;;;;;;-3.96;91.94;94592.97;4924558;29;20468;-94
2021/03/02 05:20:05;;;;;;;11.48;5.45;;;;;;;-4.39;91.80;94523.41;4911748;29;20053;-93
2021/03/02 05:22:32;;;;;;;6.90;5.38;;;;;;;-4.71;91.60;94455.81;4908877;29;20063;-95
2021/03/02 05:24:58;;;;;;;11.43;6.40;;;;;;;-3.66;91.44;94612.19;4910021;29;20052;-94
2021/03/02 05:27:26;;;;;;;13.02;6.65;;;;;;;-4.14;91.51;94533.75;4912400;29;20063;-94
2021/03/02 05:29:52;;;;;;;17.95;7.38;;;;;;;-3.84;91.70;94583.13;4912921;29;20127;-94
2021/03/02 05:32:19;;;;;;;15.02;8.27;;;;;;;-3.63;91.64;94609.53;4910883;29;20064;-95
2021/03/02 05:34:47;;;;;;;12.77;7.00;;;;;;;-3.92;91.76;94568.50;4909192;29;20056;-94
2021/03/02 05:37:13;;;;;;;17.17;6.90;;;;;;;-4.16;91.25;94537.16;4909820;29;20059;-95
2021/03/02 05:39:40;;;;;;;17.50;6.82;;;;;;;-4.39;90.65;94483.28;4910883;29;20407;-94
2021/03/02 05:42:08;;;;;;;13.45;5.95;;;;;;;-4.18;90.54;94523.91;4908593;29;20427;-94
2021/03/02 05:44:35;;;;;;;14.98;5.18;;;;;;;-3.90;90.41;94564.19;4908240;29;20397;-94
2021/03/02 05:47:03;;;;;;;7.70;4.05;;;;;;;-3.83;90.91;94562.13;4908844;29;20051;-94
2021/03/02 05:49:31;;;;;;;9.88;6.53;;;;;;;-3.87;91.14;94528.06;4910199;29;20064;-95
2021/03/02 05:51:58;;;;;;;18.52;9.60;;;;;;;-3.22;91.29;94603.00;4909044;29;20060;-95
2021/03/02 05:54:25;;;;;;;11.85;8.65;;;;;;;-3.98;92.13;94473.47;4909743;29;20056;-94
2021/03/02 05:56:52;;;;;;;13.93;8.85;;;;;;;-3.78;91.97;94484.84;4911181;29;20061;-94
2021/03/02 05:59:19;;;;;;;32.97;9.77;;;;;;;-3.16;91.73;94545.72;4910113;29;20067;-95
2021/03/02 06:01:45;;;;;;;30.85;14.10;;;;;;;-3.04;91.69;94542.47;4909843;29;20080;-94
2021/03/02 06:04:15;;;;;;;30.20;14.65;;;;;;;-3.01;91.31;94521.34;4907291;29;20089;-95
2021/03/02 06:06:43;;;;;;;18.35;10.93;;;;;;;-3.11;91.09;94478.34;4910387;29;20057;-95
2021/03/02 06:09:11;;;;;;;24.27;15.20;;;;;;;-2.42;91.29;94556.25;4910722;29;20058;-95
2021/03/02 06:11:38;;;;;;;21.60;10.73;;;;;;;-2.17;89.96;94569.00;4909003;29;20060;-95
2021/03/02 06:14:21;;;;;;;20.83;11.65;;;;;;;-1.79;90.21;94585.88;4905363;29;20048;-93
2021/03/02 06:16:49;;;;;;;19.70;10.68;;;;;;;-1.57;89.35;94598.78;4906088;29;20112;-94
2021/03/02 06:19:34;;;;;;;15.88;10.07;;;;;;;-1.35;88.83;94603.22;4905428;29;20052;-94
2021/03/02 06:22:01;;;;;;;21.53;10.30;;;;;;;-1.25;89.16;94590.81;4904568;29;20056;-94
2021/03/02 06:24:36;;;;;;;18.23;11.50;;;;;;;-1.32;88.78;94551.78;4903782;29;20287;-94
2021/03/02 06:27:12;;;;;;;21.10;10.67;;;;;;;-0.70;89.72;94610.66;4904941;29;20432;-95
2021/03/02 06:29:39;;;;;;;16.70;8.88;;;;;;;-0.59;88.42;94603.19;4904684;29;20059;-94
2021/03/02 06:32:06;;;;;;;14.20;7.63;;;;;;;-0.18;87.79;94634.00;4903624;29;20404;-93
2021/03/02 06:34:33;;;;;;;19.48;8.70;;;;;;;-0.16;82.94;94601.88;4904099;29;20077;-93
2021/03/02 06:37:04;;;;;;;13.38;8.63;;;;;;;0.18;85.10;94618.06;4903645;29;20060;-93
2021/03/02 06:39:32;;;;;;;24.15;12.15;;;;;;;0.25;81.51;94596.47;4903428;29;20515;-94
2021/03/02 06:42:17;;;;;;;38.95;14.90;;;;;;;0.69;82.56;94619.41;4903237;29;20052;-95
2021/03/02 06:44:46;;;;;;;47.50;15.90;;;;;;;0.28;81.41;94535.63;4903150;29;20059;-94
2021/03/02 06:47:14;;;;;;;42.88;17.23;;;;;;;0.86;81.05;94602.97;4903344;29;20064;-95
2021/03/02 06:49:42;;;;;;;37.10;15.85;;;;;;;1.04;81.37;94599.97;4902618;29;20415;-94
2021/03/02 06:52:33;;;;;;;57.00;14.45;;;;;;;1.47;81.60;94626.28;4901814;29;20049;-93
2021/03/02 06:54:59;;;;;;;24.85;12.50;;;;;;;1.57;81.00;94596.78;4902669;29;20053;-94
2021/03/02 06:57:27;;;;;;;20.60;8.40;;;;;;;1.56;79.28;94557.19;4903766;29;20045;-95
2021/03/02 06:59:55;;;;;;;15.43;8.25;;;;;;;2.28;77.74;94632.69;4904182;29;20049;-95
2021/03/02 07:02:35;;;;;;;19.30;10.23;;;;;;;2.38;77.28;94592.16;4903710;29;20056;-95
2021/03/02 07:05:10;;;;;;;19.80;9.50;;;;;;;2.62;76.32;94596.16;4902888;29;20047;-93
2021/03/02 07:07:37;;;;;;;28.63;10.52;;;;;;;2.76;74.99;94590.78;4903157;29;20051;-95
2021/03/02 07:10:05;;;;;;;21.63;12.13;;;;;;;2.67;72.38;94549.19;4904023;29;20527;-95
2021/03/02 07:12:34;;;;;;;30.23;12.85;;;;;;;3.41;71.95;94629.44;4903729;29;20491;-96
2021/03/02 07:15:02;;;;;;;23.50;11.27;;;;;;;3.45;72.88;94613.84;4903252;29;20064;-96
2021/03/02 07:17:29;;;;;;;23.40;10.30;;;;;;;3.48;71.55;94587.38;4903773;29;20053;-95
2021/03/02 07:19:57;;;;;;;18.48;10.82;;;;;;;3.77;69.87;94606.13;4903456;29;20048;-95
2021/03/02 07:22:25;;;;;;;16.05;8.35;;;;;;;3.82;69.63;94593.81;4903421;29;20055;-95
2021/03/02 07:24:53;;;;;;;19.17;7.35;;;;;;;4.05;70.44;94576.56;4903575;29;20052;-95
2021/03/02 07:27:21;;;;;;;16.88;7.43;;;;;;;4.31;69.01;94587.91;4903483;29;20409;-95
2021/03/02 07:29:50;;;;;;;12.65;6.97;;;;;;;4.47;68.24;94579.69;4902402;29;20053;-94
2021/03/02 07:32:17;;;;;;;17.98;6.70;;;;;;;4.78;66.68;94598.09;4902207;29;20056;-95
2021/03/02 07:34:45;;;;;;;14.27;8.07;;;;;;;4.81;65.98;94574.91;4902841;29;20116;-94
2021/03/02 07:37:12;;;;;;;23.52;8.95;;;;;;;5.10;65.98;94592.75;4902696;29;20049;-94
2021/03/02 07:39:39;;;;;;;14.93;8.50;;;;;;;5.11;65.74;94602.81;4902913;29;20044;-95
2021/03/02 07:42:20;;;;;;;;;;;;;;;5.19;67.52;94614.84;4903706;29;20056;-94
2021/03/02 07:47:46;;;;;;;29.20;12.07;;;;;;;5.13;64.16;94567.00;5073361;28;20343;-96
2021/03/02 07:50:31;;;;;;;28.42;11.68;;;;;;;5.83;64.90;94614.06;5073377;27;20066;-96
2021/03/02 07:53:20;;;;;;;32.05;12.07;;;;;;;5.88;63.02;94610.13;5075102;27;20126;-96
2021/03/02 07:55:47;;;;;;;27.67;9.90;;;;;;;5.53;62.59;94587.97;5073824;28;20049;-96
2021/03/02 07:58:16;;;;;;;13.77;7.18;;;;;;;5.16;62.38;94488.56;5073503;27;20089;-96
2021/03/02 08:00:43;;;;;;;18.15;8.15;;;;;;;6.01;62.32;94575.78;5073135;28;20093;-96
2021/03/02 08:03:29;;;;;;;15.07;7.85;;;;;;;5.68;61.71;94478.63;5072973;28;20057;-96
2021/03/02 08:06:00;;;;;;;12.45;4.80;;;;;;;6.03;58.01;94556.09;5077092;28;20113;-96
2021/03/02 08:08:35;;;;;;;9.27;5.00;;;;;;;6.29;58.51;94542.53;5075670;27;20056;-96
2021/03/02 08:11:17;;;;;;;7.78;3.67;;;;;;;6.12;58.42;94570.50;5072915;27;20269;-96
2021/03/02 08:13:44;;;;;;;4.07;2.70;;;;;;;5.83;55.22;94560.53;5055425;27;20053;-96
2021/03/02 08:16:13;;;;;;;6.25;3.25;;;;;;;6.07;59.12;94554.03;5071584;27;20063;-96
2021/03/02 08:18:41;;;;;;;7.30;2.92;;;;;;;6.51;58.58;94541.25;5072051;27;20044;-96
2021/03/02 08:21:15;;;;;;;2.40;1.60;;;;;;;6.69;55.29;94525.06;5071300;28;20056;-96
2021/03/02 08:23:50;;;;;;;2.50;1.42;;;;;;;7.24;53.47;94593.78;5074678;28;20116;-96
2021/03/02 08:26:37;;;;;;;2.55;1.73;;;;;;;6.32;52.82;94487.84;5071386;28;20391;-96
2021/03/02 08:29:12;;;;;;;4.40;1.45;;;;;;;6.86;51.99;94583.88;5071259;27;20053;-96
2021/03/02 08:31:41;;;;;;;7.45;2.60;;;;;;;6.54;53.83;94537.59;5071306;27;20059;-96
2021/03/02 08:34:11;;;;;;;3.83;1.90;;;;;;;7.19;54.68;94578.91;5070516;27;20132;-96
2021/03/02 08:36:38;;;;;;;8.35;2.70;;;;;;;6.62;50.82;94485.78;5069039;27;20059;-95
2021/03/02 08:39:16;;;;;;;4.70;2.03;;;;;;;6.43;53.82;94494.47;5068075;27;20049;-96
2021/03/02 08:41:44;;;;;;;4.45;2.17;;;;;;;7.18;50.84;94560.22;5067570;28;20057;-96
2021/03/02 08:44:17;;;;;;;8.85;3.58;;;;;;;7.26;53.79;94579.88;5067440;27;20097;-96
2021/03/02 08:46:48;;;;;;;8.98;3.50;;;;;;;7.54;53.01;94579.63;5066992;27;20051;-96
2021/03/02 08:49:15;;;;;;;5.57;3.50;;;;;;;7.58;53.41;94573.25;5067088;28;20436;-96
2021/03/02 08:51:41;;;;;;;5.82;2.53;;;;;;;7.05;52.44;94527.41;5067986;27;20052;-96
2021/03/02 08:54:08;;;;;;;4.22;2.00;;;;;;;7.40;52.21;94558.03;5067983;27;20475;-96
2021/03/02 08:56:34;;;;;;;5.55;2.83;;;;;;;7.78;51.94;94572.97;5067303;27;20057;-96
2021/03/02 08:59:06;;;;;;;15.02;4.25;;;;;;;7.53;52.66;94529.47;5054160;28;20502;-95
2021/03/02 09:01:34;;;;;;;4.70;2.58;;;;;;;7.64;53.30;94535.22;5054457;28;20056;-94
2021/03/02 09:04:09;;;;;;;3.60;2.05;;;;;;;7.30;46.53;94552.25;5054201;28;20101;-96
2021/03/02 09:06:38;;;;;;;5.70;2.45;;;;;;;6.35;46.20;94511.31;5054270;28;20045;-94
2021/03/02 09:09:06;;;;;;;5.55;2.35;;;;;;;6.15;46.59;94543.88;5054058;27;20057;-95
2021/03/02 09:11:34;;;;;;;4.95;2.60;;;;;;;5.99;48.16;94547.91;5054420;28;20049;-94
2021/03/02 09:14:03;;;;;;;7.00;2.80;;;;;;;6.40;46.65;94567.81;5054408;28;20053;-94
2021/03/02 09:16:41;;;;;;;10.23;4.82;;;;;;;6.08;47.55;94528.41;5054094;28;20049;-93
2021/03/02 09:19:17;;;;;;;3.85;2.20;;;;;;;6.26;47.98;94528.31;5054067;28;20045;-96
2021/03/02 09:21:45;;;;;;;;;;;;;;;6.53;46.18;94579.41;5054420;28;20045;-95
2021/03/02 09:24:17;;;;;;;6.28;2.35;;;;;;;6.70;46.65;94544.53;5054769;28;19921;-96
2021/03/02 09:26:52;;;;;;;5.20;2.05;;;;;;;6.43;47.04;94522.53;5055676;27;20056;-96
2021/03/02 09:29:19;;;;;;;2.50;1.38;;;;;;;6.62;46.71;94535.06;5054625;27;20056;-95
2021/03/02 09:31:46;;;;;;;3.70;2.10;;;;;;;6.93;47.15;94526.91;5054309;28;20456;-95
2021/03/02 09:34:14;;;;;;;11.27;4.53;;;;;;;7.22;46.16;94570.91;5053203;28;20475;-94
2021/03/02 09:36:41;;;;;;;6.22;2.45;;;;;;;7.02;45.05;94534.59;5053296;28;20041;-94
2021/03/02 09:42:54;;;;;;;2.10;1.40;;;;;;;6.60;45.71;94478.28;4994096;28;20046;-94
2021/03/02 09:45:21;;;;;;;7.07;2.63;;;;;;;6.84;47.11;94486.19;4992030;28;20054;-94
2021/03/02 09:47:48;;;;;;;4.88;3.03;;;;;;;7.24;47.72;94496.66;5039033;28;20060;-95
2021/03/02 09:50:15;;;;;;;5.22;2.30;;;;;;;7.85;45.54;94532.19;5053180;27;20056;-94
2021/03/02 09:52:43;;;;;;;3.30;1.40;;;;;;;7.58;43.93;94499.09;5052860;28;20049;-95
2021/03/02 09:55:25;;;;;;;4.60;2.50;;;;;;;8.02;44.93;94541.47;5053141;28;20540;-94
2021/03/02 09:58:07;;;;;;;4.18;2.30;;;;;;;8.29;46.17;94549.78;5053177;28;20113;-95
2021/03/02 10:00:36;;;;;;;5.18;2.17;;;;;;;8.46;44.00;94551.53;5052733;27;20478;-94
2021/03/02 10:03:07;;;;;;;6.03;2.28;;;;;;;8.41;43.88;94534.91;5052506;28;20049;-93
2021/03/02 10:05:42;;;;;;;5.97;2.53;;;;;;;7.45;45.05;94501.34;5052448;28;20052;-94
2021/03/02 10:08:31;;;;;;;3.72;1.75;;;;;;;7.67;44.70;94476.91;5052521;28;20399;-93
2021/03/02 10:11:00;;;;;;;2.08;1.30;;;;;;;8.64;44.46;94525.72;5051085;28;20052;-95
2021/03/02 10:13:31;;;;;;;5.45;2.13;;;;;;;9.04;45.25;94529.13;5052251;28;20045;-94
2021/03/02 10:16:17;;;;;;;1.67;1.23;;;;;;;9.17;42.29;94518.31;5052214;27;20475;-95
2021/03/02 10:18:48;;;;;;;4.03;1.30;;;;;;;8.85;43.39;94532.06;5052266;28;20056;-94
2021/03/02 10:21:15;;;;;;;2.90;1.65;;;;;;;8.64;41.88;94492.44;5051789;28;20056;-94
2021/03/02 10:23:42;;;;;;;4.00;1.58;;;;;;;8.91;41.60;94506.59;5052178;28;20052;-94
2021/03/02 10:26:10;;;;;;;5.18;1.83;;;;;;;8.78;40.82;94488.38;5051908;28;20049;-93
2021/03/02 10:28:37;;;;;;;5.78;1.98;;;;;;;9.11;40.79;94513.09;5051685;28;20048;-94
2021/03/02 10:31:04;;;;;;;3.88;2.63;;;;;;;8.91;41.78;94505.78;5051840;28;20045;-94
2021/03/02 10:33:30;;;;;;;5.18;3.05;;;;;;;8.10;42.20;94460.56;5051961;28;20124;-95
2021/03/02 10:35:56;;;;;;;;;;;;;;;8.67;41.53;94503.16;5051633;28;20105;-93
2021/03/02 10:38:23;;;;;;;3.88;2.45;;;;;;;8.46;41.68;94490.88;5051620;28;19974;-93
2021/03/02 10:40:49;;;;;;;;;;;;;;;9.17;42.57;94505.50;5051831;28;20471;-95
2021/03/02 10:43:15;;;;;;;3.08;1.67;;;;;;;8.57;42.29;94453.09;5051152;28;19928;-95
2021/03/02 10:45:43;;;;;;;4.63;1.88;;;;;;;8.93;42.49;94478.22;5051211;28;20777;-94
2021/03/02 10:48:10;;;;;;;4.22;2.08;;;;;;;9.38;43.59;94490.47;5051878;28;20389;-94
2021/03/02 10:50:36;;;;;;;4.55;1.98;;;;;;;9.21;42.49;94440.09;5052209;28;20049;-95
2021/03/02 10:53:02;;;;;;;;;;;;;;;9.71;41.34;94485.94;5052712;28;20479;-94
2021/03/02 10:55:29;;;;;;;2.58;1.95;;;;;;;9.64;40.92;94446.53;5052256;28;19920;-95
2021/03/02 10:57:55;;;;;;;4.75;2.53;;;;;;;9.70;42.03;94415.06;5051923;27;20048;-94
2021/03/02 11:00:21;;;;;;;5.03;2.45;;;;;;;10.07;40.56;94427.22;5052376;27;20452;-94
2021/03/02 11:02:49;;;;;;;4.05;2.10;;;;;;;9.93;39.05;94444.19;5051905;28;20052;-95
2021/03/02 11:05:16;;;;;;;3.53;1.95;;;;;;;9.45;39.02;94412.69;5052227;28;20049;-96
2021/03/02 11:07:42;;;;;;;3.05;1.45;;;;;;;9.30;41.15;94432.38;5052916;28;20539;-94
2021/03/02 11:10:09;;;;;;;;;;;;;;;9.11;40.80;94462.59;5052401;27;20399;-95
2021/03/02 11:12:35;;;;;;;4.72;1.85;;;;;;;9.14;40.05;94433.25;5052223;28;19921;-95
2021/03/02 11:15:01;;;;;;;;;;;;;;;9.62;40.29;94449.28;5052146;27;20475;-95
2021/03/02 11:17:28;;;;;;;2.47;1.55;;;;;;;8.66;41.55;94367.56;5051892;28;20396;-94
2021/03/02 11:19:55;;;;;;;;;;;;;;;9.59;41.09;94453.97;5052349;28;20033;-95
2021/03/02 11:22:21;;;;;;;6.28;2.05;;;;;;;8.61;40.93;94410.81;5051603;27;19920;-95
2021/03/02 11:24:47;;;;;;;;;;;;;;;9.12;43.11;94451.38;5051610;27;20048;-93
2021/03/02 11:27:13;;;;;;;4.22;1.88;;;;;;;8.81;41.46;94383.03;5050877;27;19988;-95
2021/03/02 11:29:39;;;;;;;;;;;;;;;9.17;41.27;94450.88;5051910;28;20063;-94
2021/03/02 11:32:06;;;;;;;2.72;1.77;;;;;;;8.71;40.88;94388.38;5051984;28;19973;-95
2021/03/02 11:34:34;;;;;;;1.77;1.20;;;;;;;8.89;41.00;94421.38;5051887;27;20053;-94
2021/03/02 11:37:01;;;;;;;3.35;1.80;;;;;;;8.94;41.77;94364.53;5051905;27;20109;-95
2021/03/02 11:39:27;;;;;;;2.78;1.50;;;;;;;9.25;38.69;94373.13;5050927;28;20056;-95
2021/03/02 11:41:54;;;;;;;3.70;1.80;;;;;;;9.21;38.49;94409.34;5050895;28;20440;-94
2021/03/02 11:44:20;;;;;;;;;;;;;;;9.40;39.75;94425.22;5050555;28;20398;-94
2021/03/02 11:46:46;;;;;;;4.97;1.98;;;;;;;9.34;39.34;94378.00;5049638;28;20282;-93
2021/03/02 11:49:13;;;;;;;;;;;;;;;9.77;39.42;94420.31;5051228;28;20049;-94
2021/03/02 11:51:39;;;;;;;2.97;1.75;;;;;;;9.73;40.79;94388.25;5051876;28;20362;-95